createdAt,value
2023-05-19T00:01:37.740Z,78.36
2023-05-19T00:04:09.126Z,78.53
2023-05-19T00:06:38.528Z,78.59
2023-05-19T00:09:09.519Z,78.82
2023-05-19T00:11:40.207Z,78.89
2023-05-19T00:14:11.273Z,79.21
2023-05-19T00:16:42.342Z,79.30
2023-05-19T00:19:12.669Z,79.58
2023-05-19T00:21:41.799Z,79.57
2023-05-19T00:24:10.462Z,79.80
2023-05-19T00:26:39.187Z,79.69
2023-05-19T00:29:08.874Z,80.06
2023-05-19T00:31:37.788Z,80.33
2023-05-19T00:34:06.711Z,80.52
2023-05-19T00:36:36.811Z,80.12
2023-05-19T00:39:05.643Z,80.38
2023-05-19T00:41:34.562Z,80.49
2023-05-19T00:44:03.633Z,80.95
2023-05-19T00:46:32.439Z,80.85
2023-05-19T00:49:01.152Z,81.26
2023-05-19T00:51:31.282Z,80.63
2023-05-19T00:54:01.867Z,79.87
2023-05-19T00:56:30.845Z,79.32
2023-05-19T00:59:02.798Z,78.39
2023-05-19T01:01:32.467Z,78.19
2023-05-19T01:04:04.739Z,76.47
2023-05-19T01:06:33.882Z,76.43
2023-05-19T01:09:04.280Z,74.79
2023-05-19T01:11:32.968Z,72.97
2023-05-19T01:14:02.000Z,71.69
2023-05-19T01:16:36.626Z,70.59
2023-05-19T01:19:22.108Z,69.97
2023-05-19T01:22:28.966Z,69.22
2023-05-19T01:25:50.860Z,68.65
2023-05-19T01:29:08.776Z,68.80
2023-05-19T01:31:43.333Z,68.48
2023-05-19T01:34:15.700Z,68.27
2023-05-19T01:36:48.674Z,67.98
2023-05-19T01:39:18.398Z,68.06
2023-05-19T01:41:48.714Z,68.13
2023-05-19T01:44:17.436Z,68.06
2023-05-19T01:46:48.771Z,68.00
2023-05-19T01:49:17.561Z,67.97
2023-05-19T01:51:47.082Z,67.97
2023-05-19T01:54:15.745Z,67.88
2023-05-19T01:56:57.323Z,67.80
2023-05-19T01:59:46.706Z,67.52
2023-05-19T02:02:32.347Z,66.29
2023-05-19T02:05:11.911Z,65.75
2023-05-19T02:07:50.123Z,64.81
2023-05-19T02:10:31.897Z,64.01
2023-05-19T02:13:08.656Z,64.05
2023-05-19T02:15:43.830Z,63.63
2023-05-19T02:18:18.081Z,62.77
2023-05-19T02:20:51.678Z,62.64
2023-05-19T02:23:20.314Z,61.70
2023-05-19T02:25:48.983Z,61.33
2023-05-19T02:28:18.492Z,61.23
2023-05-19T02:30:47.283Z,61.10
2023-05-19T02:33:19.387Z,60.48
2023-05-19T02:35:48.121Z,60.63
2023-05-19T02:38:16.867Z,60.80
2023-05-19T02:40:45.520Z,60.81
2023-05-19T02:43:14.264Z,59.80
2023-05-19T02:45:42.937Z,60.32
2023-05-19T02:48:11.830Z,59.92
2023-05-19T02:50:43.095Z,60.39
2023-05-19T02:53:11.781Z,59.52
2023-05-19T02:55:40.526Z,59.87
2023-05-19T02:58:09.135Z,60.05
2023-05-19T03:00:37.761Z,59.74
2023-05-19T03:03:06.517Z,59.49
2023-05-19T03:05:35.332Z,59.50
2023-05-19T03:08:06.307Z,58.47
2023-05-19T03:10:35.147Z,58.97
2023-05-19T03:13:03.954Z,59.25
2023-05-19T03:15:33.385Z,59.11
2023-05-19T03:18:02.268Z,58.82
2023-05-19T03:20:31.805Z,59.21
2023-05-19T03:23:00.593Z,59.58
2023-05-19T03:25:31.131Z,59.55
2023-05-19T03:28:00.647Z,60.42
2023-05-19T03:30:33.214Z,60.81
2023-05-19T03:33:29.981Z,60.79
2023-05-19T03:35:59.229Z,61.26
2023-05-19T03:38:30.294Z,61.68
2023-05-19T03:41:01.475Z,61.27
2023-05-19T03:43:30.301Z,61.18
2023-05-19T03:46:03.578Z,61.01
2023-05-19T03:48:52.251Z,61.19
2023-05-19T03:51:41.601Z,60.62
2023-05-19T03:54:23.639Z,60.72
2023-05-19T03:56:54.636Z,60.78
2023-05-19T03:59:23.700Z,60.87
2023-05-19T04:01:53.137Z,60.64
2023-05-19T04:04:22.926Z,60.13
2023-05-19T04:06:51.640Z,60.06
2023-05-19T04:09:20.613Z,59.70
2023-05-19T04:11:49.353Z,59.54
2023-05-19T04:14:20.204Z,59.16
2023-05-19T04:16:49.000Z,59.00
2023-05-19T04:19:18.004Z,59.11
2023-05-19T04:21:47.083Z,59.25
2023-05-19T04:24:15.774Z,59.43
2023-05-19T04:26:46.920Z,59.58
2023-05-19T04:29:19.022Z,59.44
2023-05-19T04:31:49.110Z,59.48
2023-05-19T04:34:20.130Z,59.88
2023-05-19T04:36:51.667Z,59.55
2023-05-19T04:39:22.923Z,59.25
2023-05-19T04:41:51.961Z,59.34
2023-05-19T04:44:22.111Z,59.50
2023-05-19T04:46:54.498Z,59.88
2023-05-19T04:49:28.651Z,59.72
2023-05-19T04:51:57.319Z,59.85
2023-05-19T04:54:41.309Z,60.36
2023-05-19T04:57:18.200Z,60.24
2023-05-19T04:59:52.302Z,60.78
2023-05-19T05:02:22.651Z,60.82
2023-05-19T05:04:51.465Z,61.02
2023-05-19T05:07:20.202Z,60.67
2023-05-19T05:09:49.342Z,60.06
2023-05-19T05:12:20.284Z,59.62
2023-05-19T05:14:52.318Z,59.32
2023-05-19T05:17:22.403Z,59.95
2023-05-19T05:19:52.249Z,59.82
2023-05-19T05:22:22.013Z,59.12
2023-05-19T05:24:51.762Z,59.77
2023-05-19T05:27:21.047Z,59.86
2023-05-19T05:29:51.675Z,59.78
2023-05-19T05:32:24.976Z,59.64
2023-05-19T05:34:54.715Z,59.40
2023-05-19T05:37:23.976Z,59.50
2023-05-19T05:39:52.888Z,59.20
2023-05-19T05:42:21.641Z,58.30
2023-05-19T05:44:53.009Z,57.82
2023-05-19T05:47:22.706Z,57.64
2023-05-19T05:49:53.588Z,57.27
2023-05-19T05:52:27.513Z,56.78
2023-05-19T05:54:57.236Z,56.86
2023-05-19T05:57:27.224Z,57.31
2023-05-19T05:59:57.460Z,57.23
2023-05-19T06:02:26.333Z,57.51
2023-05-19T06:04:59.136Z,57.37
2023-05-19T06:07:27.955Z,57.37
2023-05-19T06:09:57.916Z,57.37
2023-05-19T06:12:27.402Z,56.46
2023-05-19T06:14:58.171Z,56.50
2023-05-19T06:17:53.228Z,55.25
2023-05-19T06:20:22.370Z,55.97
2023-05-19T06:22:51.169Z,55.26
2023-05-19T06:25:22.240Z,55.53
2023-05-19T06:27:51.764Z,55.56
2023-05-19T06:30:23.259Z,55.78
2023-05-19T06:33:21.305Z,56.03
2023-05-19T06:35:50.944Z,55.53
2023-05-19T06:38:19.852Z,55.75
2023-05-19T06:40:49.540Z,56.34
2023-05-19T06:43:18.228Z,56.17
2023-05-19T06:45:59.095Z,56.16
2023-05-19T06:48:28.453Z,55.77
2023-05-19T06:50:57.344Z,55.38
2023-05-19T06:53:26.664Z,54.93
2023-05-19T06:55:59.971Z,54.84
2023-05-19T06:58:33.459Z,55.06
2023-05-19T07:01:06.640Z,54.74
2023-05-19T07:03:41.674Z,54.94
2023-05-19T07:06:11.902Z,54.89
2023-05-19T07:08:40.765Z,54.67
2023-05-19T07:11:12.384Z,54.26
2023-05-19T07:13:42.307Z,55.27
2023-05-19T07:16:13.022Z,54.00
2023-05-19T07:18:42.873Z,53.50
2023-05-19T07:21:13.506Z,53.68
2023-05-19T07:23:42.327Z,53.59
2023-05-19T07:26:11.232Z,52.97
2023-05-19T07:28:41.740Z,53.79
2023-05-19T07:31:12.816Z,53.20
2023-05-19T07:33:42.005Z,53.61
2023-05-19T07:36:10.773Z,53.30
2023-05-19T07:38:39.758Z,53.23
2023-05-19T07:41:08.548Z,52.74
2023-05-19T07:43:37.300Z,52.93
2023-05-19T07:46:07.283Z,52.43
2023-05-19T07:48:37.376Z,53.19
2023-05-19T07:51:06.099Z,52.40
2023-05-19T07:53:34.758Z,52.56
2023-05-19T07:56:03.653Z,52.28
2023-05-19T07:58:32.599Z,52.28
2023-05-19T08:01:01.970Z,53.55
2023-05-19T08:03:32.114Z,53.56
2023-05-19T08:06:02.358Z,53.86
2023-05-19T08:08:33.457Z,53.46
2023-05-19T08:11:05.156Z,52.79
2023-05-19T08:13:37.777Z,52.29
2023-05-19T08:16:11.069Z,51.64
2023-05-19T08:18:40.259Z,51.88
2023-05-19T08:21:11.905Z,50.90
2023-05-19T08:23:40.973Z,51.84
2023-05-19T08:26:12.415Z,51.53
2023-05-19T08:28:41.393Z,51.35
2023-05-19T08:31:11.351Z,50.77
2023-05-19T08:33:40.099Z,49.96
2023-05-19T08:36:10.391Z,50.58
2023-05-19T08:38:39.614Z,51.90
2023-05-19T08:41:09.918Z,51.82
2023-05-19T08:43:47.915Z,51.96
2023-05-19T08:46:19.600Z,51.78
2023-05-19T08:48:50.577Z,51.41
2023-05-19T08:51:34.832Z,51.78
2023-05-19T08:54:15.970Z,51.16
2023-05-19T08:56:48.255Z,50.84
2023-05-19T08:59:19.447Z,50.65
2023-05-19T09:01:51.647Z,50.70
2023-05-19T09:04:22.292Z,50.59
2023-05-19T09:06:55.421Z,51.05
2023-05-19T09:09:25.720Z,50.86
2023-05-19T09:11:54.676Z,50.67
2023-05-19T09:14:27.066Z,50.90
2023-05-19T09:16:58.100Z,50.04
2023-05-19T09:19:34.972Z,50.59
2023-05-19T09:22:06.648Z,50.89
2023-05-19T09:24:36.542Z,50.67
2023-05-19T09:27:06.161Z,50.12
2023-05-19T09:29:47.162Z,50.02
2023-05-19T09:32:27.617Z,50.03
2023-05-19T09:34:59.232Z,49.89
2023-05-19T09:37:37.577Z,49.58
2023-05-19T09:40:17.303Z,49.42
2023-05-19T09:42:49.379Z,50.47
2023-05-19T09:45:18.129Z,49.85
2023-05-19T09:47:47.658Z,49.77
2023-05-19T09:50:17.184Z,49.28
2023-05-19T09:52:50.667Z,49.04
2023-05-19T09:55:23.223Z,50.27
2023-05-19T09:57:53.109Z,50.23
2023-05-19T10:00:32.715Z,49.98
2023-05-19T10:03:05.315Z,49.26
2023-05-19T10:05:42.856Z,48.80
2023-05-19T10:08:17.951Z,48.57
2023-05-19T10:10:56.228Z,49.20
2023-05-19T10:13:26.769Z,49.31
2023-05-19T10:15:59.728Z,49.51
2023-05-19T10:18:32.108Z,48.40
2023-05-19T10:21:02.851Z,48.33
2023-05-19T10:23:33.093Z,47.68
2023-05-19T10:26:06.753Z,47.58
2023-05-19T10:28:40.776Z,47.08
2023-05-19T10:31:19.088Z,47.24
2023-05-19T10:34:14.994Z,46.61
2023-05-19T10:37:07.817Z,46.23
2023-05-19T10:39:44.970Z,46.20
2023-05-19T10:42:21.695Z,45.63
2023-05-19T10:45:12.398Z,46.68
2023-05-19T10:47:47.141Z,46.62
2023-05-19T10:50:19.771Z,46.46
2023-05-19T10:52:56.005Z,46.42
2023-05-19T10:55:48.803Z,46.39
2023-05-19T10:58:52.993Z,46.70
2023-05-19T11:01:25.975Z,46.32
2023-05-19T11:04:13.007Z,46.63
2023-05-19T11:06:45.356Z,46.84
2023-05-19T11:09:34.073Z,46.17
2023-05-19T11:12:25.093Z,47.06
2023-05-19T11:14:56.073Z,47.09
2023-05-19T11:17:29.520Z,46.63
2023-05-19T11:20:00.272Z,46.26
2023-05-19T11:22:31.022Z,46.55
2023-05-19T11:25:00.898Z,46.48
2023-05-19T11:27:32.925Z,46.57
2023-05-19T11:30:16.285Z,46.26
2023-05-19T11:32:55.269Z,45.30
2023-05-19T11:35:27.534Z,46.70
2023-05-19T11:37:58.705Z,46.40
2023-05-19T11:40:50.050Z,46.77
2023-05-19T11:43:23.992Z,47.09
2023-05-19T11:45:54.700Z,46.95
2023-05-19T11:48:30.120Z,46.34
2023-05-19T11:51:07.244Z,46.33
2023-05-19T11:53:38.929Z,45.95
2023-05-19T11:56:12.990Z,46.21
2023-05-19T11:58:43.778Z,46.37
2023-05-19T12:01:14.041Z,46.50
2023-05-19T12:03:47.860Z,46.47
2023-05-19T12:06:17.578Z,46.01
2023-05-19T12:08:48.876Z,46.62
2023-05-19T12:11:20.106Z,46.58
2023-05-19T12:13:55.090Z,46.40
2023-05-19T12:16:37.170Z,45.00
2023-05-19T12:19:14.222Z,46.06
2023-05-19T12:21:47.032Z,46.31
2023-05-19T12:24:21.450Z,45.95
2023-05-19T12:27:36.296Z,45.49
2023-05-19T12:30:11.138Z,45.97
2023-05-19T12:32:41.516Z,45.92
2023-05-19T12:35:15.939Z,46.03
2023-05-19T12:37:45.369Z,45.31
2023-05-19T12:40:19.136Z,45.52
2023-05-19T12:42:54.532Z,45.34
2023-05-19T12:45:38.678Z,45.33
2023-05-19T12:48:16.352Z,45.56
2023-05-19T12:50:47.656Z,45.47
2023-05-19T12:53:18.033Z,45.76
2023-05-19T12:55:57.258Z,45.99
2023-05-19T12:58:49.195Z,45.36
2023-05-19T13:01:28.320Z,45.68
2023-05-19T13:04:12.626Z,45.55
2023-05-19T13:06:52.373Z,45.54
2023-05-19T13:09:24.378Z,45.53
2023-05-19T13:11:54.879Z,45.63
2023-05-19T13:14:25.966Z,45.83
2023-05-19T13:17:08.703Z,46.06
2023-05-19T13:19:38.940Z,45.93
2023-05-19T13:22:10.159Z,45.53
2023-05-19T13:24:46.872Z,45.63
2023-05-19T13:27:26.301Z,45.53
2023-05-19T13:30:02.200Z,45.07
2023-05-19T13:32:38.766Z,45.70
2023-05-19T13:35:14.106Z,45.54
2023-05-19T13:37:44.793Z,45.97
2023-05-19T13:40:15.816Z,46.04
2023-05-19T13:42:49.526Z,46.11
2023-05-19T13:45:22.928Z,45.57
2023-05-19T13:47:53.307Z,45.15
2023-05-19T13:50:26.580Z,45.30
2023-05-19T13:52:56.369Z,45.86
2023-05-19T13:55:27.838Z,46.47
2023-05-19T13:57:59.055Z,46.38
2023-05-19T14:00:34.126Z,46.34
2023-05-19T14:03:07.046Z,46.32
2023-05-19T14:05:39.780Z,45.89
2023-05-19T14:08:11.441Z,46.22
2023-05-19T14:10:43.427Z,46.14
2023-05-19T14:13:31.611Z,46.07
2023-05-19T14:16:10.558Z,45.61
2023-05-19T14:18:41.843Z,45.22
2023-05-19T14:21:12.738Z,44.59
2023-05-19T14:23:50.185Z,44.53
2023-05-19T14:26:27.474Z,44.32
2023-05-19T14:29:00.349Z,44.68
2023-05-19T14:31:31.914Z,44.43
2023-05-19T14:34:02.015Z,45.20
2023-05-19T14:36:31.200Z,45.09
2023-05-19T14:39:00.027Z,44.82
2023-05-19T14:41:28.797Z,44.37
2023-05-19T14:43:57.604Z,44.48
2023-05-19T14:46:26.503Z,44.50
2023-05-19T14:48:55.206Z,44.17
2023-05-19T14:51:25.325Z,43.79
2023-05-19T14:53:53.968Z,43.83
2023-05-19T14:56:25.372Z,44.11
2023-05-19T14:58:54.240Z,44.60
2023-05-19T15:01:23.062Z,43.87
2023-05-19T15:03:52.061Z,43.96
2023-05-19T15:06:20.782Z,44.35
2023-05-19T15:08:51.065Z,43.43
2023-05-19T15:11:19.766Z,43.89
2023-05-19T15:13:48.472Z,43.74
2023-05-19T15:16:19.551Z,42.89
2023-05-19T15:18:48.516Z,42.45
2023-05-19T15:21:17.919Z,43.42
2023-05-19T15:23:47.501Z,43.31
2023-05-19T15:26:22.477Z,43.36
2023-05-19T15:28:56.906Z,43.51
2023-05-19T15:31:25.832Z,43.02
2023-05-19T15:33:55.069Z,42.67
2023-05-19T15:36:25.410Z,42.95
2023-05-19T15:38:54.326Z,42.29
2023-05-19T15:41:25.790Z,42.57
2023-05-19T15:43:55.022Z,42.51
2023-05-19T15:46:24.125Z,42.38
2023-05-19T15:48:54.403Z,42.70
2023-05-19T15:51:25.272Z,41.86
2023-05-19T15:53:55.541Z,41.74
2023-05-19T15:56:28.878Z,42.54
2023-05-19T15:58:59.014Z,41.70
2023-05-19T16:01:31.075Z,41.85
2023-05-19T16:04:25.965Z,41.58
2023-05-19T16:06:56.639Z,41.99
2023-05-19T16:09:26.252Z,42.28
2023-05-19T16:11:56.623Z,42.68
2023-05-19T16:14:33.327Z,42.81
2023-05-19T16:17:10.962Z,42.43
2023-05-19T16:19:39.972Z,43.17
2023-05-19T16:22:09.104Z,43.06
2023-05-19T16:24:41.416Z,42.29
2023-05-19T16:27:12.706Z,42.35
2023-05-19T16:29:41.318Z,42.23
2023-05-19T16:32:11.645Z,42.30
2023-05-19T16:35:04.928Z,42.00
2023-05-19T16:40:17.686Z,42.16
2023-05-19T16:42:48.084Z,42.17
2023-05-19T16:45:20.066Z,42.20
2023-05-19T16:47:49.121Z,42.13
2023-05-19T16:50:23.056Z,42.31
2023-05-19T16:52:56.285Z,41.46
2023-05-19T16:55:36.924Z,41.98
2023-05-19T16:58:12.835Z,41.66
2023-05-19T17:00:49.484Z,41.76
2023-05-19T17:03:18.849Z,42.46
2023-05-19T17:05:51.366Z,42.36
2023-05-19T17:08:35.761Z,42.83
2023-05-19T17:11:06.664Z,42.90
2023-05-19T17:13:37.252Z,42.86
2023-05-19T17:16:08.941Z,43.32
2023-05-19T17:18:37.626Z,43.62
2023-05-19T17:21:07.329Z,43.71
2023-05-19T17:23:44.026Z,43.69
2023-05-19T17:26:13.182Z,43.97
2023-05-19T17:28:43.595Z,44.68
2023-05-19T17:31:13.418Z,44.22
2023-05-19T17:33:42.464Z,44.56
2023-05-19T17:36:11.192Z,44.48
2023-05-19T17:38:40.517Z,44.99
2023-05-19T17:41:11.001Z,45.36
2023-05-19T17:43:40.206Z,46.03
2023-05-19T17:46:11.750Z,46.77
2023-05-19T17:48:40.848Z,47.33
2023-05-19T17:51:09.813Z,47.73
2023-05-19T17:53:39.371Z,47.95
2023-05-19T17:56:11.342Z,47.89
2023-05-19T17:58:41.464Z,48.00
2023-05-19T18:01:12.535Z,48.42
2023-05-19T18:03:43.582Z,48.13
2023-05-19T18:06:15.710Z,48.56
2023-05-19T18:08:47.210Z,48.15
2023-05-19T18:11:16.783Z,48.54
2023-05-19T18:13:46.466Z,48.38
2023-05-19T18:16:16.951Z,49.03
2023-05-19T18:18:50.460Z,49.77
2023-05-19T18:21:19.961Z,50.28
2023-05-19T18:23:49.078Z,51.35
2023-05-19T18:26:17.859Z,51.81
2023-05-19T18:28:46.554Z,52.75
2023-05-19T18:31:22.535Z,52.81
2023-05-19T18:33:52.623Z,53.38
2023-05-19T18:36:21.837Z,53.69
2023-05-19T18:38:51.636Z,54.37
2023-05-19T18:41:21.519Z,54.54
2023-05-19T18:43:50.280Z,54.74
2023-05-19T18:46:20.582Z,54.97
2023-05-19T18:48:50.873Z,55.46
2023-05-19T18:51:21.403Z,55.58
2023-05-19T18:53:50.775Z,56.20
2023-05-19T18:56:25.375Z,56.81
2023-05-19T18:58:54.262Z,57.62
2023-05-19T19:01:24.632Z,57.61
2023-05-19T19:03:53.739Z,57.76
2023-05-19T19:06:23.410Z,57.88
2023-05-19T19:08:52.324Z,58.27
2023-05-19T19:11:21.490Z,59.01
2023-05-19T19:13:51.356Z,59.72
2023-05-19T19:16:20.371Z,59.32
2023-05-19T19:18:50.789Z,59.64
2023-05-19T19:21:22.889Z,59.90
2023-05-19T19:23:51.758Z,60.28
2023-05-19T19:26:20.986Z,60.21
2023-05-19T19:28:49.599Z,60.35
2023-05-19T19:31:18.499Z,60.20
2023-05-19T19:33:47.182Z,60.88
2023-05-19T19:36:17.376Z,62.05
2023-05-19T19:38:46.234Z,62.43
2023-05-19T19:41:14.896Z,62.52
2023-05-19T19:43:43.561Z,62.23
2023-05-19T19:46:12.258Z,62.75
2023-05-19T19:48:40.979Z,63.07
2023-05-19T19:51:10.956Z,63.44
2023-05-19T19:53:40.961Z,63.71
2023-05-19T19:56:09.645Z,64.25
2023-05-19T19:58:38.366Z,64.37
2023-05-19T20:01:08.275Z,64.40
2023-05-19T20:03:37.813Z,64.72
2023-05-19T20:06:07.118Z,64.64
2023-05-19T20:08:36.855Z,64.14
2023-05-19T20:11:07.389Z,64.63
2023-05-19T20:13:36.029Z,63.99
2023-05-19T20:16:04.895Z,64.59
2023-05-19T20:18:33.618Z,64.76
2023-05-19T20:21:02.316Z,64.90
2023-05-19T20:23:31.064Z,65.48
2023-05-19T20:26:10.828Z,65.13
2023-05-19T20:28:41.972Z,65.02
2023-05-19T20:31:10.818Z,64.88
2023-05-19T20:33:39.598Z,65.30
2023-05-19T20:36:08.482Z,65.12
2023-05-19T20:38:37.122Z,65.52
2023-05-19T20:41:05.907Z,66.05
2023-05-19T20:43:36.082Z,65.77
2023-05-19T20:46:06.287Z,65.95
2023-05-19T20:48:35.078Z,66.51
2023-05-19T20:51:03.766Z,66.87
2023-05-19T20:53:32.424Z,67.12
2023-05-19T20:56:01.135Z,67.60
2023-05-19T20:58:31.530Z,67.86
2023-05-19T21:01:00.253Z,67.93
2023-05-19T21:03:30.837Z,67.24
2023-05-19T21:06:00.689Z,66.97
2023-05-19T21:08:29.808Z,66.74
2023-05-19T21:10:59.364Z,66.47
2023-05-19T21:13:28.195Z,66.22
2023-05-19T21:15:58.274Z,66.43
2023-05-19T21:18:26.995Z,66.02
2023-05-19T21:20:57.045Z,66.00
2023-05-19T21:23:25.733Z,66.24
2023-05-19T21:25:54.375Z,66.00
2023-05-19T21:28:23.589Z,66.32
2023-05-19T21:30:52.248Z,66.59
2023-05-19T21:33:20.931Z,66.43
2023-05-19T21:35:49.634Z,66.48
2023-05-19T21:38:23.812Z,66.55
2023-05-19T21:40:53.813Z,66.67
2023-05-19T21:43:23.308Z,66.78
2023-05-19T21:45:52.072Z,66.71
2023-05-19T21:48:21.581Z,66.86
2023-05-19T21:50:54.705Z,67.08
2023-05-19T21:53:25.519Z,67.15
2023-05-19T21:55:54.465Z,67.39
2023-05-19T21:58:24.156Z,67.62
2023-05-19T22:00:56.135Z,67.85
2023-05-19T22:03:25.044Z,67.84
2023-05-19T22:05:56.047Z,67.79
2023-05-19T22:08:26.193Z,68.04
2023-05-19T22:10:55.014Z,68.63
2023-05-19T22:13:23.710Z,68.48
2023-05-19T22:15:52.432Z,68.44
2023-05-19T22:18:21.496Z,68.52
2023-05-19T22:20:50.247Z,68.58
2023-05-19T22:23:19.006Z,68.71
2023-05-19T22:25:49.044Z,68.87
2023-05-19T22:28:18.038Z,68.94
2023-05-19T22:30:46.814Z,69.05
2023-05-19T22:33:15.601Z,68.84
2023-05-19T22:35:44.424Z,69.27
2023-05-19T22:38:13.096Z,69.50
2023-05-19T22:40:41.976Z,69.72
2023-05-19T22:43:12.094Z,70.13
2023-05-19T22:45:40.983Z,70.31
2023-05-19T22:48:09.905Z,70.63
2023-05-19T22:50:38.644Z,70.66
2023-05-19T22:53:07.499Z,70.55
2023-05-19T22:55:36.556Z,70.95
2023-05-19T22:58:05.343Z,71.07
2023-05-19T23:00:35.679Z,70.88
2023-05-19T23:03:04.500Z,71.05
2023-05-19T23:05:33.354Z,71.18
2023-05-19T23:08:02.205Z,71.25
2023-05-19T23:10:30.939Z,71.30
2023-05-19T23:12:59.918Z,71.21
2023-05-19T23:15:28.736Z,71.17
2023-05-19T23:17:58.845Z,71.37
2023-05-19T23:20:27.719Z,71.36
2023-05-19T23:22:56.427Z,71.40
2023-05-19T23:25:25.235Z,71.70
2023-05-19T23:27:54.082Z,71.46
2023-05-19T23:30:22.755Z,71.47
2023-05-19T23:32:51.584Z,71.60
2023-05-19T23:35:22.342Z,71.68
2023-05-19T23:37:51.111Z,71.75
2023-05-19T23:40:20.070Z,71.54
2023-05-19T23:42:51.629Z,71.61
2023-05-19T23:45:20.684Z,71.88
2023-05-19T23:47:49.437Z,71.83
2023-05-19T23:50:18.420Z,71.79
2023-05-19T23:52:48.903Z,72.29
2023-05-19T23:55:17.982Z,71.95
2023-05-19T23:57:46.678Z,72.18
